Framingham, MA

2:38 AM EST on January 26, 2015 (GMT -0500)
Logan International | Change Station
CLOSE
Current Station
Airport
Location: Boston,
Elevation: 20 ft
Nearby Weather Stations
Active Advisory: Blizzard Warning

Elev 20 ft 42.36 °N, 71.01 °W | Updated 44 minutes ago

Partly Cloudy
Partly Cloudy
16 °F
Feels Like 1 °F
N
15
Wind Variable Wind from NW
Gusts 18 mph

Today
High -- | Low -- °F
--% Chance of Precip.
Yesterday
High -- | Low -- °F
Precip. -- in
7:05 AM 4:51 PM
Waxing Crescent, 40% visible
Pressure 30.08 in
Visibility 10.0 miles
Clouds Mostly Cloudy 22000 ft
Overcast 25000 ft
Windchill 1 °F
Dew Point -1 °F
Humidity 47%
Rainfall 0.00 in
Snow Depth Not available.
UV 0 out of 12
Pollen .10 out of 12
Air Quality Not available.
Flu Activity Not available.
METAR KBOS 260654Z 32013G16KT 10SM BKN220 OVC250 M09/M18 A3008 RMK AO2 SLP185 T10891183

More Conditions Fewer Conditions

Pressure 30.08 in
Visibility 10.0 miles
Clouds Mostly Cloudy 22000 ft
Overcast 25000 ft
Windchill 1 °F
Dew Point -1 °F
Humidity 47%
Rainfall 0.00 in
Snow Depth Not available.
UV 0 out of 12
Pollen .10 out of 12
Air Quality Not available.
Flu Activity Not available.
METAR KBOS 260654Z 32013G16KT 10SM BKN220 OVC250 M09/M18 A3008 RMK AO2 SLP185 T10891183

More Conditions Fewer Conditions

10-Day Weather Forecast

Almanac

Astronomy

Jan. 26, 2015 Rise Set
Actual Time
Civil Twilight
Nautical Twilight
Astronomical Twilight
Moon
Length of Visible Light
Length of Day
Tomorrow will be .
, % of the Moon is Illuminated

Today's Extremes

State Highs State Lows

Community

WunderPhotos

Upload Photos

1,790,155 photos uploaded!

WunderBlogs® & News

Nearby

Air Quality

  Air Quality AQ Index Pollutant
Not available.

Snow Depth

Station Depth Elevation

Earthquake Activity

City Distance Mag. Time & Date
Minimum magnitude displayed is 2.5.

Coastal Water Temperatures

Place Temperature

Nearby Weather Stations